-> Other stations

1455

Speed(max): 1.6(2.2)knots
Direction:271° ( W)
Temperature: 9.1°C
Arrived: 2026-05-03 03:27:47 CEST

Past data:
hh:mmknots
Dir (°)
°C
03:25 1.6 2.2 W(272) 9.0
03:23 1.6 2.2 W(273) 9.0
03:21 1.6 2.7 W(270) 9.1
03:19 1.1 2.2 W(274) 9.3
03:17 1.1 1.6 W(271) 9.5
03:15 1.1 1.6 W(272) 9.5
03:13 0.5 1.6 W(273) 9.2
03:11 0 0 W(272) 9.1
03:09 0 0 W(272) 9.1
03:07 0 0 W(271) 9.2
03:05 0.5 1.6 W(272) 9.3
03:03 1.1 1.6 W(274) 9.3
03:01 1.1 2.2 W(272) 9.3
02:59 1.6 2.2 W(273) 9.5
15 min. averages:
hh:mmknots
Dir (°)
°C
03:15 0.5 2.2 W(272) 9.2
03:00 1.1 2.7 W(272) 9.3
02:45 1.1 2.2 W(273) 9.1
02:30 1.1 2.7 W(272) 9.5
02:15 0 0 W(272) 9.0
02:00 0.5 2.2 W(272) 9.1
01:45 0 1.6 W(272) 9.4
01:30 0 1.6 W(272) 9.4
01:15 0 1.6 W(272) 9.5
01:00 1.1 2.2 W(272) 9.5
00:45 1.1 2.2 W(272) 9.8
00:30 1.1 2.7 W(272) 10.1
00:15 1.1 2.2 W(272) 10.1
00:00 1.1 2.2 W(272) 10.3
23:45 0.5 1.6 W(272) 10.8
Stations at HR:
1455
-> Other regions

Desktop view
Data provided by Holfuy.
© Holfuy Weather 2026